Terminal Aerodrome Forecast
Issued by NWS Sioux Falls, SD

Home | Current Version | Previous Version | Graphics & Text | Print | Product List | Glossary Off
Versions: 1 2 3 4 5 6 7 8 9 10 11 12 13 14 15 16

000
FTUS43 KFSD 261129
TAFHON
TAF
KHON 261129Z 2612/2712 34015G21KT P6SM OVC010
      TEMPO 2612/2614 6SM -FZDZSN BR
     FM261500 34017G25KT P6SM OVC012
     FM262000 34015G23KT P6SM OVC020
     FM270300 35011KT P6SM BKN025
     FM270800 33009KT P6SM OVC015
     FM271100 34011KT P6SM BKN020=

USA.gov is the U.S. government's official web portal to all federal, state and local government web resources and services.